Time;durP1;ratioP1;P1;durP2;ratioP2;P2;SDS_P1;SDS_P2;PMS_P1;PMS_P2;Temp;Humidity;BMP_temperature;BMP_pressure;BME280_temperature;BME280_humidity;BME280_pressure;Samples;Min_cycle;Max_cycle;Signal;HPM_P1;HPM_P2
2022/09/08 00:00:26;;;;;;;20.20;15.52;;;;;;;17.17;100.00;100819.31;5012719;28;20049;-77
2022/09/08 00:02:53;;;;;;;18.55;15.60;;;;;;;17.23;100.00;100825.38;5014541;28;20586;-76
2022/09/08 00:05:23;;;;;;;23.13;15.77;;;;;;;17.15;100.00;100821.13;5010783;28;20053;-76
2022/09/08 00:07:52;;;;;;;28.70;16.42;;;;;;;16.88;100.00;100781.91;5012910;28;20124;-76
2022/09/08 00:10:17;;;;;;;30.67;17.25;;;;;;;15.96;100.00;100637.06;5007765;28;20085;-78
2022/09/08 00:12:44;;;;;;;20.83;15.15;;;;;;;16.96;100.00;100802.94;5013236;28;20041;-75
2022/09/08 00:15:16;;;;;;;19.85;14.95;;;;;;;16.02;100.00;100660.78;4998007;28;20072;-75
2022/09/08 00:17:41;;;;;;;28.67;14.45;;;;;;;16.30;99.91;100687.63;5010245;28;20052;-76
2022/09/08 00:20:08;;;;;;;21.52;15.98;;;;;;;16.36;99.50;100670.72;4984314;28;20045;-77
2022/09/08 00:22:35;;;;;;;20.98;15.00;;;;;;;16.22;99.54;100682.50;5008252;28;20060;-78
2022/09/08 00:25:00;;;;;;;21.00;16.52;;;;;;;17.06;99.62;100812.44;5010182;28;20064;-76
2022/09/08 00:27:26;;;;;;;26.75;16.00;;;;;;;17.04;99.82;100813.38;5012382;28;20029;-76
2022/09/08 00:29:52;;;;;;;17.48;14.63;;;;;;;16.82;100.00;100778.50;5011232;28;20481;-74
2022/09/08 00:32:19;;;;;;;22.65;17.13;;;;;;;16.85;100.00;100775.78;5010557;28;20037;-73
2022/09/08 00:34:44;;;;;;;20.73;15.25;;;;;;;15.99;100.00;100671.41;5010703;28;20038;-74
2022/09/08 00:37:10;;;;;;;18.92;14.45;;;;;;;16.81;100.00;100800.56;5012786;28;20481;-75
2022/09/08 00:39:35;;;;;;;21.35;15.85;;;;;;;16.92;100.00;100819.81;5010601;28;20397;-79
2022/09/08 00:42:01;;;;;;;17.48;14.32;;;;;;;16.62;100.00;100778.81;5012963;28;20026;-76
2022/09/08 00:44:39;;;;;;;22.02;17.08;;;;;;;16.87;100.00;100829.63;5011068;28;20488;-76
2022/09/08 00:47:14;;;;;;;22.33;16.52;;;;;;;16.86;100.00;100822.59;5006534;28;20099;-75
2022/09/08 00:49:41;;;;;;;17.70;15.75;;;;;;;16.79;100.00;100797.13;5008673;28;20064;-77
2022/09/08 00:52:07;;;;;;;22.92;15.90;;;;;;;15.78;100.00;100656.78;5015001;28;20045;-77
2022/09/08 00:54:35;;;;;;;28.48;16.58;;;;;;;16.52;100.00;100812.56;5008631;28;20096;-76
2022/09/08 00:57:01;;;;;;;18.98;15.80;;;;;;;16.23;100.00;100779.53;5011234;28;20044;-78
2022/09/08 00:59:27;;;;;;;22.13;16.33;;;;;;;15.75;100.00;100667.44;5011218;28;20042;-77
2022/09/08 01:01:53;;;;;;;18.75;14.60;;;;;;;16.33;100.00;100766.13;5012518;28;20123;-78
2022/09/08 01:04:20;;;;;;;21.42;16.30;;;;;;;16.58;100.00;100785.13;5010305;28;20124;-76
2022/09/08 01:12:45;;;;;;;16.67;14.55;;;;;;;15.92;100.00;100680.38;5010557;28;20052;-74
2022/09/08 01:15:27;;;;;;;22.67;16.88;;;;;;;16.70;100.00;100802.56;5016599;28;20048;-76
2022/09/08 01:17:55;;;;;;;17.50;15.52;;;;;;;15.72;100.00;100651.63;5019889;28;20509;-76
2022/09/08 01:20:27;;;;;;;20.27;16.85;;;;;;;16.42;100.00;100776.56;5032173;28;20049;-77
2022/09/08 01:22:58;;;;;;;19.15;15.50;;;;;;;16.58;100.00;100823.06;5031328;28;20505;-76
2022/09/08 01:25:33;;;;;;;25.25;15.65;;;;;;;16.42;100.00;100809.22;5030579;28;20500;-77
2022/09/08 01:28:07;;;;;;;23.85;15.90;;;;;;;16.40;100.00;100805.72;5026377;28;20048;-79
2022/09/08 01:30:35;;;;;;;21.13;13.93;;;;;;;16.62;100.00;100802.69;5023492;28;20044;-76
2022/09/08 01:33:04;;;;;;;27.23;16.98;;;;;;;15.73;100.00;100671.88;5030544;28;20097;-76
2022/09/08 01:35:33;;;;;;;27.77;16.58;;;;;;;16.52;100.00;100787.88;5029916;28;20041;-76
2022/09/08 01:37:59;;;;;;;25.55;18.25;;;;;;;16.62;100.00;100800.03;5023603;28;20045;-76
2022/09/08 01:40:24;;;;;;;21.90;18.20;;;;;;;16.00;100.00;100721.69;5029224;28;21077;-76
2022/09/08 01:42:50;;;;;;;26.17;17.08;;;;;;;16.24;100.00;100751.28;5031725;28;20546;-77
2022/09/08 01:45:16;;;;;;;22.23;16.27;;;;;;;16.29;100.00;100780.31;5029406;28;20138;-79
2022/09/08 01:47:41;;;;;;;23.73;17.38;;;;;;;16.34;100.00;100766.13;5010613;28;20057;-77
2022/09/08 01:50:09;;;;;;;24.38;17.45;;;;;;;15.87;100.00;100674.28;5030498;28;20783;-76
2022/09/08 01:52:34;;;;;;;20.30;16.05;;;;;;;15.72;100.00;100668.38;5031293;28;20606;-77
2022/09/08 01:55:00;;;;;;;25.10;18.63;;;;;;;16.14;100.00;100760.31;5028414;28;20049;-79
2022/09/08 01:57:26;;;;;;;21.95;18.25;;;;;;;15.47;100.00;100670.50;5032851;28;20037;-76
2022/09/08 01:59:51;;;;;;;27.55;16.15;;;;;;;16.27;100.00;100785.63;5025671;28;20596;-75
2022/09/08 02:02:17;;;;;;;19.88;17.70;;;;;;;16.29;100.00;100794.44;5030987;28;20075;-74
2022/09/08 02:04:43;;;;;;;22.35;17.92;;;;;;;15.70;100.00;100666.63;5029113;28;20516;-75
2022/09/08 02:07:09;;;;;;;21.33;18.08;;;;;;;16.37;100.00;100770.50;5030922;28;20045;-77
2022/09/08 02:09:36;;;;;;;25.95;17.48;;;;;;;16.27;100.00;100760.94;5029407;28;20424;-75
2022/09/08 02:12:03;;;;;;;20.85;17.08;;;;;;;15.96;100.00;100697.94;5032985;28;20454;-78
2022/09/08 02:14:28;;;;;;;20.15;16.80;;;;;;;16.34;100.00;100792.59;5031078;28;20068;-74
2022/09/08 02:16:54;;;;;;;24.08;16.08;;;;;;;15.40;100.00;100632.75;4991739;28;20041;-75
2022/09/08 02:19:20;;;;;;;20.55;17.40;;;;;;;15.42;100.00;100637.97;5011013;28;20046;-75
2022/09/08 02:21:46;;;;;;;24.58;17.27;;;;;;;16.22;100.00;100788.41;5010781;28;20661;-77
2022/09/08 02:24:11;;;;;;;25.40;17.02;;;;;;;15.73;100.00;100724.78;5009883;28;20809;-77
2022/09/08 02:26:38;;;;;;;25.38;17.75;;;;;;;16.11;100.00;100787.69;5010504;28;20058;-75
2022/09/08 02:29:04;;;;;;;24.23;16.58;;;;;;;15.18;100.00;100640.13;5009838;28;20052;-76
2022/09/08 02:31:30;;;;;;;24.60;17.25;;;;;;;16.14;100.00;100810.59;5007772;28;20686;-76
2022/09/08 02:33:55;;;;;;;28.90;18.50;;;;;;;15.70;100.00;100717.78;5011880;28;20421;-76
2022/09/08 02:36:21;;;;;;;25.58;17.35;;;;;;;16.07;100.00;100772.75;5014214;28;20041;-75
2022/09/08 02:38:52;;;;;;;22.70;17.73;;;;;;;15.61;100.00;100709.97;5010289;28;20046;-76
2022/09/08 02:41:19;;;;;;;21.73;16.58;;;;;;;15.08;100.00;100613.88;5012191;28;20053;-76
2022/09/08 02:43:44;;;;;;;20.15;16.13;;;;;;;16.14;100.00;100782.34;4994998;28;20049;-78
2022/09/08 02:46:11;;;;;;;22.08;18.00;;;;;;;15.39;100.00;100657.41;5010750;28;20742;-74
2022/09/08 02:48:36;;;;;;;21.08;17.77;;;;;;;15.19;100.00;100617.19;5014418;28;20548;-75
2022/09/08 02:51:05;;;;;;;24.70;18.23;;;;;;;16.13;100.00;100788.56;5017015;28;20033;-76
2022/09/08 02:53:30;;;;;;;24.85;19.85;;;;;;;15.39;100.00;100673.28;5011221;28;20074;-76
2022/09/08 02:55:59;;;;;;;28.30;20.63;;;;;;;15.36;100.00;100673.34;5016120;28;20042;-79
2022/09/08 02:58:25;;;;;;;28.45;17.88;;;;;;;15.49;100.00;100668.72;5014773;28;20045;-76
2022/09/08 03:00:51;;;;;;;26.02;18.33;;;;;;;15.13;100.00;100612.03;5012646;28;20036;-79
2022/09/08 03:03:17;;;;;;;23.02;18.48;;;;;;;16.15;100.00;100793.81;5011076;28;20131;-80
2022/09/08 03:05:44;;;;;;;25.05;18.58;;;;;;;16.12;100.00;100794.72;5013953;28;20055;-79
2022/09/08 03:08:10;;;;;;;25.25;19.17;;;;;;;15.17;100.00;100621.63;5009481;28;20106;-74
2022/09/08 03:10:36;;;;;;;24.35;19.60;;;;;;;16.19;100.00;100793.72;5014208;28;20046;-78
2022/09/08 03:13:02;;;;;;;22.92;17.63;;;;;;;15.23;100.00;100636.53;5014566;28;20492;-79
2022/09/08 03:15:30;;;;;;;28.63;18.20;;;;;;;15.92;100.00;100759.75;4997957;28;20398;-76
2022/09/08 03:17:57;;;;;;;27.40;19.17;;;;;;;16.08;100.00;100777.16;5031565;28;20371;-74
2022/09/08 03:20:24;;;;;;;22.67;19.33;;;;;;;16.11;100.00;100787.69;5016564;28;20132;-78
2022/09/08 03:22:50;;;;;;;23.48;18.00;;;;;;;15.80;100.00;100737.94;5029369;28;20049;-78
2022/09/08 03:25:17;;;;;;;27.35;18.92;;;;;;;15.27;100.00;100672.59;5034049;28;20049;-78
2022/09/08 03:27:43;;;;;;;26.33;21.08;;;;;;;15.12;100.00;100637.56;5031755;28;20084;-78
2022/09/08 03:30:13;;;;;;;26.13;19.60;;;;;;;15.57;100.00;100726.81;5033651;28;20124;-76
2022/09/08 03:32:41;;;;;;;34.33;21.13;;;;;;;15.80;100.00;100766.13;5033211;28;20045;-77
2022/09/08 03:35:08;;;;;;;24.73;20.50;;;;;;;15.93;100.00;100759.75;5015130;28;20493;-78
2022/09/08 03:37:40;;;;;;;24.92;20.63;;;;;;;16.04;100.00;100801.94;5030514;28;20134;-76
2022/09/08 03:40:08;;;;;;;23.80;19.92;;;;;;;15.90;100.00;100782.75;5033848;28;20049;-77
2022/09/08 03:42:36;;;;;;;25.65;20.30;;;;;;;16.06;100.00;100783.38;5032615;28;20137;-78
2022/09/08 03:45:05;;;;;;;27.63;22.55;;;;;;;15.80;100.00;100729.09;5032309;28;20087;-73
2022/09/08 03:47:37;;;;;;;25.02;20.85;;;;;;;15.22;100.00;100618.91;5030574;28;20045;-80
2022/09/08 03:50:03;;;;;;;24.90;21.07;;;;;;;16.08;100.00;100753.31;5034091;28;20086;-76
2022/09/08 03:52:29;;;;;;;28.05;23.02;;;;;;;16.15;100.00;100767.31;5000071;28;20552;-78
2022/09/08 03:54:54;;;;;;;25.80;20.20;;;;;;;15.95;100.00;100739.44;5034028;28;20060;-77
2022/09/08 03:57:26;;;;;;;28.70;20.55;;;;;;;15.60;100.00;100673.84;5023367;28;20029;-78
2022/09/08 03:59:54;;;;;;;30.23;20.13;;;;;;;15.13;100.00;100601.44;5020706;28;20058;-76
2022/09/08 04:02:21;;;;;;;31.98;22.02;;;;;;;15.49;100.00;100692.50;5028372;28;20041;-79
2022/09/08 04:04:48;;;;;;;39.95;23.25;;;;;;;15.82;100.00;100751.97;5020500;28;20046;-79
2022/09/08 04:07:15;;;;;;;29.42;22.70;;;;;;;15.61;100.00;100716.13;5022959;28;20045;-77
2022/09/08 04:09:42;;;;;;;29.95;21.48;;;;;;;15.61;100.00;100720.53;5004246;28;20033;-80
2022/09/08 04:12:08;;;;;;;30.27;22.48;;;;;;;15.14;100.00;100654.25;5033175;28;20045;-79
2022/09/08 04:14:34;;;;;;;26.63;22.65;;;;;;;15.03;100.00;100621.88;5032701;28;20056;-77
2022/09/08 04:17:00;;;;;;;28.23;23.02;;;;;;;15.29;100.00;100652.28;5014794;28;20041;-78
2022/09/08 04:19:25;;;;;;;25.50;21.55;;;;;;;15.85;100.00;100758.13;5011546;28;20054;-77
2022/09/08 04:21:51;;;;;;;31.63;21.52;;;;;;;16.00;100.00;100769.34;4993788;28;20037;-76
2022/09/08 04:24:17;;;;;;;34.95;22.08;;;;;;;15.02;100.00;100609.53;5012839;28;20030;-79
2022/09/08 04:26:42;;;;;;;33.10;24.30;;;;;;;15.60;100.00;100681.78;5012456;28;20041;-80
2022/09/08 04:29:08;;;;;;;28.17;22.80;;;;;;;15.35;100.00;100633.69;5012253;28;20050;-80
2022/09/08 04:31:35;;;;;;;30.63;24.13;;;;;;;16.28;100.00;100783.88;5014618;28;20350;-78
2022/09/08 04:34:01;;;;;;;26.85;21.10;;;;;;;15.67;100.00;100664.03;5013334;28;20458;-76
2022/09/08 04:36:28;;;;;;;28.52;23.40;;;;;;;15.43;100.00;100633.56;5006248;28;20045;-79
2022/09/08 04:38:58;;;;;;;29.00;22.30;;;;;;;15.52;100.00;100649.28;5011147;28;20038;-78
2022/09/08 04:41:25;;;;;;;33.95;23.30;;;;;;;16.41;100.00;100806.59;5013706;28;20053;-77
2022/09/08 04:43:51;;;;;;;28.45;21.35;;;;;;;16.48;100.00;100797.63;5008047;28;20049;-81
2022/09/08 04:46:18;;;;;;;27.92;22.25;;;;;;;16.39;100.00;100763.38;5006804;28;22162;-77
2022/09/08 04:48:45;;;;;;;35.00;24.55;;;;;;;16.59;100.00;100797.44;5006863;28;20041;-76
2022/09/08 04:51:16;;;;;;;36.63;22.48;;;;;;;16.53;100.00;100787.84;5012261;28;20113;-76
2022/09/08 04:53:51;;;;;;;29.20;23.65;;;;;;;16.35;100.00;100777.59;5009969;28;20315;-78
2022/09/08 04:56:17;;;;;;;39.80;24.65;;;;;;;15.77;100.00;100655.94;5011772;28;20053;-79
2022/09/08 04:58:43;;;;;;;32.33;24.20;;;;;;;16.74;100.00;100791.88;5009309;28;20041;-81
2022/09/08 05:01:11;;;;;;;33.25;23.38;;;;;;;16.76;100.00;100791.81;5010797;28;20104;-77
2022/09/08 05:03:37;;;;;;;35.72;22.95;;;;;;;16.95;100.00;100772.03;5014174;28;20047;-80
2022/09/08 05:06:11;;;;;;;36.22;22.70;;;;;;;18.13;96.60;100795.03;4993685;28;20898;-78
2022/09/08 05:08:37;;;;;;;30.13;23.25;;;;;;;18.86;91.48;100797.56;5009240;28;20045;-78
2022/09/08 05:11:04;;;;;;;33.60;22.65;;;;;;;19.47;88.17;100805.53;5012966;28;20125;-80
2022/09/08 05:13:31;;;;;;;27.90;20.67;;;;;;;20.03;84.81;100808.22;5011718;28;20501;-78
2022/09/08 05:16:08;;;;;;;34.88;22.58;;;;;;;20.65;81.31;100825.69;5013419;28;20049;-79
2022/09/08 05:18:35;;;;;;;29.35;21.13;;;;;;;20.17;78.93;100671.00;5009969;28;20520;-77
2022/09/08 05:21:01;;;;;;;34.63;21.85;;;;;;;21.22;77.16;100794.28;5009436;28;20260;-80
2022/09/08 05:23:26;;;;;;;31.83;21.25;;;;;;;21.49;75.65;100820.84;5011424;28;20393;-78
2022/09/08 05:26:07;;;;;;;40.10;19.92;;;;;;;21.22;74.91;100692.84;5009980;28;20048;-77
2022/09/08 05:28:38;;;;;;;30.00;21.20;;;;;;;21.80;73.10;100740.38;5010156;28;20121;-80
2022/09/08 05:31:05;;;;;;;34.15;19.20;;;;;;;22.33;71.35;100804.09;5017714;28;20988;-80
2022/09/08 05:33:31;;;;;;;29.85;18.98;;;;;;;21.71;70.51;100672.19;4991791;28;20033;-80
2022/09/08 05:35:57;;;;;;;35.40;18.48;;;;;;;22.76;69.47;100815.63;4993419;28;20319;-82
2022/09/08 05:38:23;;;;;;;26.33;18.75;;;;;;;22.89;68.33;100821.28;5012118;28;20053;-79
2022/09/08 05:40:49;;;;;;;25.67;17.48;;;;;;;23.05;67.52;100823.31;5009950;28;20485;-79
2022/09/08 05:43:15;;;;;;;25.05;18.27;;;;;;;22.46;64.74;100676.09;4991932;28;20053;-80
2022/09/08 05:45:47;;;;;;;27.60;16.48;;;;;;;23.33;64.58;100788.09;5008180;28;20080;-79
2022/09/08 05:48:13;;;;;;;17.83;15.55;;;;;;;22.58;63.79;100687.16;5010888;28;20057;-76
2022/09/08 05:50:46;;;;;;;27.55;18.02;;;;;;;21.88;68.16;100796.16;5009392;28;20037;-78
2022/09/08 05:53:12;;;;;;;17.57;15.50;;;;;;;22.16;67.45;100674.75;4993257;28;20049;-81
2022/09/08 05:55:40;;;;;;;25.13;17.02;;;;;;;22.85;66.61;100759.94;5009109;28;21896;-78
2022/09/08 05:58:07;;;;;;;31.23;16.17;;;;;;;23.58;63.48;100830.69;5010406;28;20125;-77
2022/09/08 06:00:32;;;;;;;22.35;17.42;;;;;;;23.79;63.66;100821.63;5011629;28;20041;-82
2022/09/08 06:02:58;;;;;;;22.67;17.38;;;;;;;23.93;62.17;100812.91;5010852;28;20074;-82
2022/09/08 06:05:24;;;;;;;29.70;15.20;;;;;;;23.90;62.09;100822.91;5008249;28;20053;-79
2022/09/08 06:07:49;;;;;;;22.88;15.63;;;;;;;22.95;62.10;100683.66;5010370;28;20057;-76
2022/09/08 06:10:17;;;;;;;20.23;16.85;;;;;;;22.91;62.79;100811.38;5013096;28;20128;-79
2022/09/08 06:12:44;;;;;;;28.55;17.08;;;;;;;22.95;65.26;100821.03;5012514;28;20041;-77
2022/09/08 06:15:10;;;;;;;18.73;14.48;;;;;;;22.22;66.07;100693.19;5013048;28;20029;-77
2022/09/08 06:17:36;;;;;;;23.95;16.02;;;;;;;22.74;66.77;100812.13;5014612;28;20124;-74
2022/09/08 06:20:03;;;;;;;22.70;17.65;;;;;;;21.36;66.36;100799.09;5017259;28;20518;-73
2022/09/08 06:22:32;;;;;;;23.33;17.27;;;;;;;21.96;67.69;100811.88;5021402;28;20033;-76
2022/09/08 06:24:57;;;;;;;20.58;15.05;;;;;;;22.28;65.82;100815.94;5024932;28;20085;-78
2022/09/08 06:27:42;;;;;;;24.92;15.73;;;;;;;22.16;64.29;100840.47;5016463;28;20145;-79
2022/09/08 06:30:14;;;;;;;22.08;15.85;;;;;;;21.40;66.81;100757.13;5011902;28;20057;-76
2022/09/08 06:33:01;;;;;;;23.05;15.95;;;;;;;22.02;65.83;100828.53;5015458;28;20107;-72
2022/09/08 06:35:39;;;;;;;26.67;15.15;;;;;;;21.67;65.92;100830.81;5007750;28;22275;-72
2022/09/08 06:38:10;;;;;;;31.02;15.18;;;;;;;21.84;65.64;100826.59;5016964;28;20080;-72
2022/09/08 06:40:39;;;;;;;22.50;13.65;;;;;;;21.46;65.02;100831.66;5017781;28;20045;-74
2022/09/08 06:43:42;;;;;;;19.05;14.80;;;;;;;21.65;65.89;100832.69;5018094;28;20049;-71
2022/09/08 06:46:23;;;;;;;19.33;14.27;;;;;;;21.79;66.75;100825.94;5002725;28;20902;-74
2022/09/08 06:48:49;;;;;;;22.15;12.82;;;;;;;21.54;66.29;100828.69;5016665;28;20041;-72
2022/09/08 06:51:38;;;;;;;21.48;15.20;;;;;;;21.38;66.77;100836.41;4997912;28;20042;-71
2022/09/08 06:54:04;;;;;;;20.00;13.43;;;;;;;21.49;66.66;100840.44;5008412;28;20057;-72
2022/09/08 06:56:39;;;;;;;23.33;16.52;;;;;;;21.35;66.07;100836.50;5015774;28;20729;-73
2022/09/08 06:59:33;;;;;;;16.90;13.30;;;;;;;21.48;67.74;100833.34;5015554;28;20427;-74
2022/09/08 07:02:26;;;;;;;20.42;16.08;;;;;;;21.26;66.03;100835.94;5012197;28;20128;-73
2022/09/08 07:05:02;;;;;;;26.60;14.77;;;;;;;21.66;66.31;100836.25;5013259;28;20069;-70
2022/09/08 07:07:50;;;;;;;21.52;16.55;;;;;;;21.36;66.80;100848.94;4995307;28;20134;-73
2022/09/08 07:10:29;;;;;;;29.77;16.48;;;;;;;21.31;66.84;100821.56;4994587;28;20102;-72
2022/09/08 07:13:05;;;;;;;26.23;13.90;;;;;;;22.06;69.46;100840.00;5013894;28;20092;-71
2022/09/08 07:15:46;;;;;;;23.35;14.93;;;;;;;21.50;67.38;100723.81;5005383;28;20500;-73
2022/09/08 07:18:24;;;;;;;32.97;17.23;;;;;;;21.59;65.49;100800.03;5009282;28;20053;-72
2022/09/08 07:21:02;;;;;;;17.52;15.07;;;;;;;21.08;65.51;100753.91;5025609;28;20186;-71
2022/09/08 07:23:33;;;;;;;32.95;16.98;;;;;;;21.49;66.52;100815.50;5029731;28;20116;-71
2022/09/08 07:26:16;;;;;;;34.90;15.80;;;;;;;21.95;67.12;100843.09;5032450;28;20055;-70
2022/09/08 07:28:47;;;;;;;25.63;13.93;;;;;;;21.41;67.33;100725.03;5038504;28;20060;-73
2022/09/08 07:31:22;;;;;;;19.52;13.73;;;;;;;22.06;64.37;100859.56;5032048;28;20033;-72
2022/09/08 07:34:14;;;;;;;18.92;13.32;;;;;;;21.79;66.27;100820.59;5027287;28;20091;-72
2022/09/08 07:37:02;;;;;;;19.33;12.60;;;;;;;21.77;65.77;100807.28;5030156;28;20103;-72
2022/09/08 07:39:39;;;;;;;19.52;13.05;;;;;;;22.44;65.63;100859.81;5035868;28;20069;-71
2022/09/08 07:42:11;;;;;;;29.88;13.98;;;;;;;22.46;66.20;100817.81;5033032;28;20060;-70
2022/09/08 07:44:38;;;;;;;17.02;10.35;;;;;;;22.37;65.87;100729.13;5031386;28;20045;-72
2022/09/08 07:47:41;;;;;;;21.98;14.48;;;;;;;22.43;64.49;100859.88;5025956;28;20179;-71
2022/09/08 07:50:09;;;;;;;21.00;15.88;;;;;;;22.30;63.87;100865.72;5033908;28;20068;-72
2022/09/08 07:53:00;;;;;;;40.60;14.65;;;;;;;22.26;61.60;100865.91;5035226;28;20078;-73
2022/09/08 07:55:32;;;;;;;22.83;13.07;;;;;;;21.21;61.95;100760.50;5031569;28;20424;-73
2022/09/08 07:58:25;;;;;;;28.83;14.70;;;;;;;21.88;62.21;100860.28;5031548;28;20052;-72
2022/09/08 08:00:56;;;;;;;21.48;12.57;;;;;;;22.49;64.02;100852.44;5026225;28;20245;-72
2022/09/08 08:03:46;;;;;;;19.23;12.88;;;;;;;22.70;63.58;100855.16;5027913;28;20049;-72
2022/09/08 08:06:30;;;;;;;16.73;11.25;;;;;;;21.98;60.85;100732.53;5026287;28;20579;-72
2022/09/08 08:09:23;;;;;;;14.52;11.13;;;;;;;23.02;63.91;100855.59;5035357;28;20253;-72
2022/09/08 08:12:17;;;;;;;28.30;12.93;;;;;;;23.35;63.84;100855.84;5030074;28;20056;-70
2022/09/08 08:15:11;;;;;;;20.55;11.05;;;;;;;23.63;62.75;100851.91;5029197;28;20073;-74
2022/09/08 08:17:39;;;;;;;12.27;9.10;;;;;;;23.67;62.32;100857.03;5009872;28;20052;-76
2022/09/08 08:20:24;;;;;;;14.95;9.88;;;;;;;23.62;60.89;100851.00;5007143;28;20045;-75
2022/09/08 08:23:18;;;;;;;13.55;9.43;;;;;;;23.55;60.97;100857.59;5031594;28;20045;-72
2022/09/08 08:25:53;;;;;;;20.95;11.68;;;;;;;22.96;56.19;100856.69;5030505;28;20060;-72
2022/09/08 08:28:20;;;;;;;12.02;9.82;;;;;;;23.35;60.99;100850.50;5028217;28;20041;-71
2022/09/08 08:31:10;;;;;;;14.88;9.38;;;;;;;23.18;56.19;100851.28;5031175;28;20112;-70
2022/09/08 08:33:43;;;;;;;15.20;8.70;;;;;;;23.47;57.52;100851.75;5033043;28;20037;-72
2022/09/08 08:36:12;;;;;;;17.67;9.68;;;;;;;23.25;56.00;100820.59;5032860;28;20037;-73
2022/09/08 08:38:45;;;;;;;25.10;9.73;;;;;;;23.51;55.69;100842.63;5032528;28;20041;-72
2022/09/08 08:41:26;;;;;;;13.82;8.30;;;;;;;23.27;54.24;100780.34;5031583;28;20049;-72
2022/09/08 08:44:29;;;;;;;11.82;8.02;;;;;;;23.51;54.43;100845.31;5047443;28;20087;-72
2022/09/08 08:47:13;;;;;;;14.70;7.15;;;;;;;23.46;56.50;100831.22;5028110;28;20049;-72
2022/09/08 08:50:09;;;;;;;16.40;8.07;;;;;;;23.59;55.05;100832.41;5029600;28;20082;-72
2022/09/08 08:52:40;;;;;;;12.05;8.15;;;;;;;22.93;52.49;100712.31;5027685;28;20045;-71
2022/09/08 08:55:21;;;;;;;21.38;8.27;;;;;;;23.37;53.16;100836.09;5028265;28;20060;-69
2022/09/08 08:58:17;;;;;;;16.55;7.10;;;;;;;23.53;55.19;100820.19;5026584;28;20470;-72
2022/09/08 09:01:05;;;;;;;12.43;7.50;;;;;;;23.66;53.08;100822.25;5026063;28;20492;-73
2022/09/08 09:03:52;;;;;;;11.93;6.60;;;;;;;23.80;53.53;100822.50;5027642;28;20458;-72
2022/09/08 09:06:45;;;;;;;22.52;6.45;;;;;;;24.06;51.91;100812.31;5024166;28;20088;-73
2022/09/08 09:09:13;;;;;;;6.93;5.38;;;;;;;23.82;53.27;100822.44;5025804;28;20133;-72
2022/09/08 09:12:20;;;;;;;10.38;6.28;;;;;;;23.98;51.90;100813.56;5006608;28;20053;-74
2022/09/08 09:15:06;;;;;;;11.98;8.20;;;;;;;24.04;52.06;100803.47;4997325;28;20059;-73
2022/09/08 09:18:08;;;;;;;8.30;6.20;;;;;;;24.05;51.83;100799.84;5009184;28;20120;-73
2022/09/08 09:20:48;;;;;;;12.60;6.35;;;;;;;23.92;52.37;100772.78;5009395;28;20041;-73
2022/09/08 09:23:36;;;;;;;9.32;5.05;;;;;;;24.24;50.01;100792.63;5010977;28;20052;-73
2022/09/08 09:26:02;;;;;;;10.77;5.47;;;;;;;24.30;49.21;100797.66;5010204;28;20045;-74
2022/09/08 09:28:56;;;;;;;11.40;5.70;;;;;;;24.48;48.46;100792.34;5006272;28;20405;-74
2022/09/08 09:31:49;;;;;;;7.50;5.03;;;;;;;24.59;48.99;100796.19;5009921;28;20137;-75
2022/09/08 09:34:21;;;;;;;9.07;5.15;;;;;;;24.62;46.94;100806.75;5010158;28;20050;-72
2022/09/08 09:37:20;;;;;;;10.50;3.97;;;;;;;24.43;46.59;100798.75;5005265;28;20033;-73
2022/09/08 09:39:46;;;;;;;14.38;5.80;;;;;;;24.40;46.89;100809.66;5000867;28;20128;-74
2022/09/08 09:42:29;;;;;;;11.48;5.28;;;;;;;24.52;46.63;100792.09;5002856;28;20555;-74
2022/09/08 09:45:23;;;;;;;6.72;4.28;;;;;;;24.54;46.83;100792.03;5008555;28;20069;-73
2022/09/08 09:48:26;;;;;;;7.75;5.80;;;;;;;24.65;47.87;100776.19;5005841;28;20060;-72
2022/09/08 09:51:07;;;;;;;8.43;6.03;;;;;;;24.79;47.41;100779.00;5009050;28;20075;-73
2022/09/08 09:53:48;;;;;;;17.48;6.97;;;;;;;24.78;45.84;100793.41;5006262;28;20041;-73
2022/09/08 09:56:29;;;;;;;7.50;4.45;;;;;;;24.42;46.57;100670.09;5006436;28;20148;-74
2022/09/08 09:59:32;;;;;;;8.32;6.65;;;;;;;25.04;47.46;100773.19;5001247;28;20058;-74
2022/09/08 10:02:35;;;;;;;13.60;6.60;;;;;;;25.17;47.38;100769.81;5006104;28;20698;-74
2022/09/08 10:05:34;;;;;;;15.65;5.75;;;;;;;24.95;48.97;100732.56;4994081;28;20049;-79
2022/09/08 10:08:27;;;;;;;9.25;6.07;;;;;;;25.33;45.23;100775.25;5010645;28;20509;-77
2022/09/08 10:10:55;;;;;;;12.20;4.82;;;;;;;25.53;43.60;100766.94;5005597;28;20481;-76
2022/09/08 10:13:42;;;;;;;6.35;4.65;;;;;;;25.09;43.08;100697.75;5007274;28;20104;-77
2022/09/08 10:16:32;;;;;;;10.00;7.20;;;;;;;25.76;43.77;100759.41;5005153;28;20061;-79
2022/09/08 10:19:39;;;;;;;13.10;4.53;;;;;;;25.60;42.75;100757.56;5007259;28;20521;-77
2022/09/08 10:22:20;;;;;;;8.13;4.45;;;;;;;25.79;45.44;100765.44;5006983;28;20056;-78
2022/09/08 10:24:54;;;;;;;8.93;5.00;;;;;;;25.30;43.33;100638.44;5009413;28;20033;-77
2022/09/08 10:27:56;;;;;;;7.28;4.68;;;;;;;26.26;45.28;100761.81;5009022;28;20057;-81
2022/09/08 10:30:59;;;;;;;11.13;5.07;;;;;;;26.70;42.93;100758.25;5010873;28;20505;-78
2022/09/08 10:33:40;;;;;;;8.10;4.80;;;;;;;27.06;43.30;100756.91;5009783;28;20064;-78
2022/09/08 10:36:10;;;;;;;10.52;4.80;;;;;;;27.27;40.15;100751.16;5010170;28;20046;-75
2022/09/08 10:38:57;;;;;;;7.32;5.57;;;;;;;27.79;43.14;100754.00;5010751;28;20046;-77
2022/09/08 10:42:03;;;;;;;9.70;4.93;;;;;;;27.72;41.86;100743.69;5008877;28;20164;-75
2022/09/08 10:44:34;;;;;;;14.13;4.95;;;;;;;27.87;38.31;100752.66;5007691;28;20588;-78
2022/09/08 10:47:11;;;;;;;8.27;4.20;;;;;;;28.14;38.52;100744.50;5006736;28;20510;-80
2022/09/08 10:49:43;;;;;;;9.00;4.68;;;;;;;28.35;40.86;100736.75;5010494;28;20096;-77
2022/09/08 10:52:46;;;;;;;8.57;4.97;;;;;;;28.18;39.43;100737.94;5000918;28;20117;-78
2022/09/08 10:55:42;;;;;;;8.70;4.35;;;;;;;28.32;39.82;100736.97;5008411;28;20148;-76
2022/09/08 10:58:29;;;;;;;8.63;4.95;;;;;;;28.15;37.49;100749.81;4993006;28;20049;-75
2022/09/08 11:01:02;;;;;;;7.30;3.92;;;;;;;28.19;40.75;100737.84;5009494;28;20054;-77
2022/09/08 11:03:28;;;;;;;7.38;4.43;;;;;;;27.81;37.55;100735.00;4997396;28;20499;-77
2022/09/08 11:06:32;;;;;;;10.20;5.32;;;;;;;27.82;38.06;100734.03;5013238;28;20057;-75
2022/09/08 11:09:21;;;;;;;6.68;4.50;;;;;;;28.23;39.58;100738.47;4972785;28;20045;-75
2022/09/08 11:12:29;;;;;;;9.65;4.80;;;;;;;28.45;37.87;100705.47;5012380;28;20056;-75
2022/09/08 11:15:08;;;;;;;13.10;5.72;;;;;;;28.61;38.43;100699.84;4994517;28;20049;-77
2022/09/08 11:17:46;;;;;;;13.43;6.80;;;;;;;28.61;39.20;100713.34;5015642;28;20278;-77
2022/09/08 11:20:45;;;;;;;6.05;4.60;;;;;;;28.04;36.02;100678.66;5012575;28;21598;-77
2022/09/08 11:23:17;;;;;;;12.32;4.22;;;;;;;27.38;36.76;100707.34;4995583;28;20072;-76
2022/09/08 11:26:04;;;;;;;9.77;5.90;;;;;;;27.53;38.26;100698.22;5013275;28;20120;-77
2022/09/08 11:29:01;;;;;;;9.40;4.78;;;;;;;27.32;38.29;100698.69;5006692;28;20601;-76
2022/09/08 11:31:46;;;;;;;11.57;5.65;;;;;;;26.42;37.95;100580.59;5014902;28;20049;-78
2022/09/08 11:34:38;;;;;;;5.20;4.03;;;;;;;27.38;37.84;100702.81;5015100;28;20092;-75
2022/09/08 11:37:18;;;;;;;11.10;5.25;;;;;;;27.79;37.88;100694.66;5005518;28;20129;-76
2022/09/08 11:39:51;;;;;;;6.20;3.63;;;;;;;27.95;39.93;100669.34;5014390;28;20052;-76
2022/09/08 11:42:27;;;;;;;6.60;3.95;;;;;;;27.22;37.56;100588.91;5013961;28;20044;-74
2022/09/08 11:45:41;;;;;;;7.78;4.15;;;;;;;28.11;38.33;100697.00;4996081;28;20262;-75
2022/09/08 11:48:51;;;;;;;6.75;4.00;;;;;;;27.65;40.43;100685.75;5014822;28;20053;-75